Time;durP1;ratioP1;P1;durP2;ratioP2;P2;SDS_P1;SDS_P2;PMS_P1;PMS_P2;Temp;Humidity;BMP_temperature;BMP_pressure;BME280_temperature;BME280_humidity;BME280_pressure;Samples;Min_cycle;Max_cycle;Signal;HPM_P1;HPM_P2
2021/08/20 00:00:14;;;;;;;2.88;1.85;;;22.50;55.20;;;;;;6323740;28;20108;-72
2021/08/20 00:03:17;;;;;;;5.68;2.40;;;22.40;55.20;;;;;;6335797;27;20035;-73
2021/08/20 00:06:18;;;;;;;11.57;2.65;;;22.40;55.40;;;;;;6349200;28;20039;-73
2021/08/20 00:09:19;;;;;;;7.60;2.80;;;22.30;55.50;;;;;;6348891;28;20535;-73
2021/08/20 00:12:23;;;;;;;6.28;2.53;;;22.30;55.70;;;;;;6348845;27;20118;-73
2021/08/20 00:15:24;;;;;;;3.85;2.17;;;22.20;55.70;;;;;;6348915;27;20483;-73
2021/08/20 00:18:26;;;;;;;5.63;2.13;;;22.20;55.70;;;;;;6349689;27;20122;-73
2021/08/20 00:21:28;;;;;;;2.85;2.13;;;22.20;55.80;;;;;;6348401;28;20402;-73
2021/08/20 00:24:29;;;;;;;3.13;1.88;;;22.30;55.80;;;;;;6330684;28;20038;-73
2021/08/20 00:27:30;;;;;;;6.53;2.33;;;22.20;55.80;;;;;;6349269;27;20468;-73
2021/08/20 00:30:31;;;;;;;4.20;1.95;;;22.20;55.80;;;;;;6348627;28;20046;-73
2021/08/20 00:33:34;;;;;;;4.88;2.30;;;22.20;55.80;;;;;;6347308;28;20036;-72
2021/08/20 00:36:38;;;;;;;3.65;2.20;;;22.20;55.90;;;;;;6349585;27;20126;-72
2021/08/20 00:39:42;;;;;;;3.67;2.13;;;22.10;56.00;;;;;;6331408;28;20122;-73
2021/08/20 00:42:43;;;;;;;3.92;1.90;;;22.10;56.20;;;;;;6349268;27;20045;-72
2021/08/20 00:45:57;;;;;;;4.97;1.92;;;22.10;56.20;;;;;;6348343;28;20104;-73
2021/08/20 00:49:01;;;;;;;4.68;2.08;;;22.00;56.30;;;;;;6347313;27;20476;-74
2021/08/20 00:52:03;;;;;;;2.90;1.80;;;22.00;56.30;;;;;;6347870;27;20036;-74
2021/08/20 00:55:05;;;;;;;3.10;1.88;;;21.90;56.30;;;;;;6347201;27;20035;-74
2021/08/20 00:58:09;;;;;;;5.05;1.48;;;21.90;56.40;;;;;;6345813;27;20031;-74
2021/08/20 01:01:11;;;;;;;2.38;1.58;;;21.90;56.40;;;;;;6347986;27;20046;-73
2021/08/20 01:04:12;;;;;;;1.50;1.13;;;21.90;56.40;;;;;;6344378;27;20032;-73
2021/08/20 01:07:16;;;;;;;7.65;1.70;;;21.90;56.40;;;;;;6346883;27;20039;-73
2021/08/20 01:10:18;;;;;;;2.30;1.60;;;21.90;56.40;;;;;;6329746;27;20035;-73
2021/08/20 01:13:20;;;;;;;1.85;1.45;;;21.90;56.20;;;;;;6322001;27;20085;-73
2021/08/20 01:16:22;;;;;;;3.35;2.20;;;21.90;56.20;;;;;;6346846;27;20344;-73
2021/08/20 01:19:27;;;;;;;1.63;1.27;;;21.90;56.10;;;;;;6363872;27;20043;-73
2021/08/20 01:22:29;;;;;;;2.92;1.70;;;21.90;56.10;;;;;;6348983;27;20054;-73
2021/08/20 01:25:34;;;;;;;3.08;1.60;;;21.90;56.10;;;;;;6344783;27;20345;-73
2021/08/20 01:28:35;;;;;;;2.13;1.50;;;21.90;56.10;;;;;;6346266;27;20044;-74
2021/08/20 01:31:37;;;;;;;3.38;1.63;;;21.90;56.20;;;;;;6346642;27;20028;-73
2021/08/20 01:34:38;;;;;;;6.78;1.80;;;21.90;56.20;;;;;;6347674;27;20032;-73
2021/08/20 01:37:39;;;;;;;4.25;1.90;;;21.90;56.20;;;;;;6351541;27;20035;-73
2021/08/20 01:40:41;;;;;;;2.58;1.73;;;21.90;56.10;;;;;;6351599;27;20122;-73
2021/08/20 01:43:42;;;;;;;3.28;1.67;;;21.90;56.10;;;;;;6333555;27;20032;-73
2021/08/20 01:46:44;;;;;;;4.38;2.05;;;21.90;56.20;;;;;;6334357;27;20043;-74
2021/08/20 01:49:45;;;;;;;2.88;1.73;;;21.90;56.20;;;;;;6351175;27;20043;-73
2021/08/20 01:52:46;;;;;;;4.63;2.35;;;21.80;56.30;;;;;;6350169;27;20036;-73
2021/08/20 01:55:49;;;;;;;5.18;1.75;;;21.80;56.40;;;;;;6351395;27;20440;-74
2021/08/20 01:58:51;;;;;;;5.53;1.60;;;21.70;56.50;;;;;;6351413;27;20044;-73
2021/08/20 02:01:52;;;;;;;4.13;1.75;;;21.70;56.70;;;;;;6333123;27;20085;-73
2021/08/20 02:04:57;;;;;;;3.92;1.95;;;21.60;56.90;;;;;;6325537;28;20046;-74
2021/08/20 02:08:00;;;;;;;2.90;1.75;;;21.60;57.00;;;;;;6325478;28;20115;-74
2021/08/20 02:11:01;;;;;;;6.20;2.20;;;21.60;57.00;;;;;;6325596;28;20508;-74
2021/08/20 02:14:03;;;;;;;4.00;2.08;;;21.70;57.20;;;;;;6308522;28;20032;-73
2021/08/20 02:17:07;;;;;;;10.27;2.25;;;21.60;57.30;;;;;;6325406;28;20082;-74
2021/08/20 02:20:09;;;;;;;3.25;1.92;;;21.60;57.30;;;;;;6324991;28;20028;-74
2021/08/20 02:23:11;;;;;;;4.15;2.25;;;21.60;57.40;;;;;;6325261;28;20423;-73
2021/08/20 02:26:17;;;;;;;3.70;1.85;;;21.60;57.40;;;;;;6308673;28;20456;-74
2021/08/20 02:29:18;;;;;;;5.38;2.58;;;21.60;57.40;;;;;;6341997;28;20086;-73
2021/08/20 02:32:21;;;;;;;3.75;2.25;;;21.50;57.50;;;;;;6330374;27;20028;-73
2021/08/20 02:35:23;;;;;;;3.30;2.00;;;21.60;57.60;;;;;;6351442;28;20082;-73
2021/08/20 02:38:25;;;;;;;4.30;2.38;;;21.50;57.50;;;;;;6351301;28;20028;-73
2021/08/20 02:41:28;;;;;;;2.75;1.92;;;21.50;57.60;;;;;;6324821;27;20439;-73
2021/08/20 02:44:32;;;;;;;4.47;2.35;;;21.50;57.70;;;;;;6351126;28;20330;-74
2021/08/20 02:47:33;;;;;;;6.32;2.15;;;21.50;57.70;;;;;;6350988;27;20038;-74
2021/08/20 02:50:36;;;;;;;3.00;1.80;;;21.50;57.70;;;;;;6350943;28;20037;-73
2021/08/20 02:53:42;;;;;;;2.97;1.98;;;21.60;57.70;;;;;;6333119;28;20035;-73
2021/08/20 02:56:44;;;;;;;5.50;2.90;;;22.10;58.10;;;;;;6350775;27;20123;-74
2021/08/20 02:59:51;;;;;;;6.07;2.85;;;21.50;57.70;;;;;;6332890;27;20491;-73
2021/08/20 03:02:52;;;;;;;4.88;2.60;;;21.60;57.90;;;;;;6348129;27;20086;-74
2021/08/20 03:05:54;;;;;;;5.88;2.38;;;21.60;57.90;;;;;;6333237;27;20104;-74
2021/08/20 03:08:57;;;;;;;3.00;2.00;;;21.60;57.90;;;;;;6350436;27;20189;-74
2021/08/20 03:11:58;;;;;;;4.55;1.85;;;21.50;58.00;;;;;;6356013;27;20160;-74
2021/08/20 03:15:00;;;;;;;5.78;2.10;;;21.50;58.20;;;;;;6358175;27;20042;-74
2021/08/20 03:18:05;;;;;;;5.47;2.70;;;21.40;58.20;;;;;;6359231;27;20068;-73
2021/08/20 03:21:08;;;;;;;5.28;2.30;;;21.40;58.20;;;;;;6374902;27;20031;-74
2021/08/20 03:24:21;;;;;;;3.70;2.20;;;21.30;58.30;;;;;;6360356;27;20572;-73
2021/08/20 03:27:22;;;;;;;4.40;2.42;;;21.30;58.40;;;;;;6350248;27;20039;-73
2021/08/20 03:30:39;;;;;;;5.88;2.75;;;21.30;58.40;;;;;;6360747;27;20050;-73
2021/08/20 03:33:41;;;;;;;4.30;2.17;;;21.30;58.40;;;;;;6341531;27;20036;-73
2021/08/20 03:36:50;;;;;;;4.32;1.98;;;21.30;58.40;;;;;;6349668;27;20043;-74
2021/08/20 03:40:13;;;;;;;3.38;1.98;;;21.30;58.40;;;;;;6334496;27;20032;-74
2021/08/20 03:43:24;;;;;;;6.35;2.47;;;21.30;58.50;;;;;;6332556;27;20472;-73
2021/08/20 03:46:42;;;;;;;3.47;2.40;;;21.20;58.50;;;;;;6348607;27;20075;-74
2021/08/20 03:49:43;;;;;;;9.10;2.50;;;21.20;58.50;;;;;;6348200;27;20043;-74
2021/08/20 03:52:44;;;;;;;3.65;2.10;;;21.20;58.50;;;;;;6348475;27;20032;-74
2021/08/20 03:55:46;;;;;;;4.80;2.15;;;21.20;58.50;;;;;;6331392;27;20036;-73
2021/08/20 03:59:07;;;;;;;5.45;2.25;;;21.20;58.50;;;;;;6271613;28;20087;-74
2021/08/20 04:02:09;;;;;;;3.38;2.22;;;21.30;58.40;;;;;;6238396;28;20132;-73
2021/08/20 04:05:15;;;;;;;4.72;2.40;;;21.30;58.40;;;;;;6255410;28;20040;-74
2021/08/20 04:08:25;;;;;;;4.00;2.50;;;21.30;58.40;;;;;;6254687;28;20044;-73
2021/08/20 04:11:49;;;;;;;3.47;2.22;;;21.30;58.40;;;;;;6258712;28;20041;-73
2021/08/20 04:15:08;;;;;;;6.80;2.45;;;21.40;58.30;;;;;;6269621;28;20033;-74
2021/08/20 04:18:11;;;;;;;4.30;2.78;;;21.40;58.40;;;;;;6269484;28;20044;-73
2021/08/20 04:21:13;;;;;;;4.78;2.30;;;21.40;58.40;;;;;;6246754;28;20025;-73
2021/08/20 04:24:17;;;;;;;4.22;2.53;;;21.40;58.50;;;;;;6239951;28;20033;-73
2021/08/20 04:27:21;;;;;;;6.40;2.78;;;21.40;58.50;;;;;;6253658;28;20120;-73
2021/08/20 04:30:47;;;;;;;7.35;2.92;;;21.40;58.50;;;;;;6253287;28;20045;-74
2021/08/20 04:34:05;;;;;;;5.78;2.67;;;21.40;58.60;;;;;;6251741;28;20424;-73
2021/08/20 04:37:23;;;;;;;4.40;2.30;;;21.40;58.70;;;;;;6319107;28;20119;-74
2021/08/20 04:40:40;;;;;;;3.35;2.63;;;21.30;58.70;;;;;;6319020;28;20032;-73
2021/08/20 04:44:01;;;;;;;5.18;3.45;;;21.20;58.80;;;;;;6317900;28;20036;-73
2021/08/20 04:47:17;;;;;;;6.13;3.47;;;21.20;58.90;;;;;;6318971;28;20044;-74
2021/08/20 04:50:41;;;;;;;3.58;2.60;;;21.20;59.00;;;;;;6267760;28;20044;-73
2021/08/20 04:53:55;;;;;;;8.15;3.10;;;21.20;59.10;;;;;;6267798;28;20462;-73
2021/08/20 04:57:12;;;;;;;7.90;3.53;;;21.30;59.20;;;;;;6267951;28;20068;-73
2021/08/20 05:00:14;;;;;;;4.10;2.40;;;21.30;59.10;;;;;;6267129;28;20033;-73
2021/08/20 05:03:16;;;;;;;4.45;3.00;;;21.40;59.20;;;;;;6280687;28;20033;-73
2021/08/20 05:06:17;;;;;;;3.80;2.38;;;21.40;59.10;;;;;;6267070;28;20047;-73
2021/08/20 05:09:18;;;;;;;10.98;2.95;;;21.50;59.10;;;;;;6268309;28;20060;-74
2021/08/20 05:12:19;;;;;;;6.90;3.42;;;21.50;59.10;;;;;;6287373;28;20040;-73
2021/08/20 05:15:22;;;;;;;5.30;3.00;;;21.50;59.10;;;;;;6283611;28;20036;-73
2021/08/20 05:18:23;;;;;;;3.80;2.33;;;21.60;59.10;;;;;;6281262;28;20044;-73
2021/08/20 05:21:24;;;;;;;4.10;2.65;;;21.60;59.00;;;;;;6264397;28;20397;-73
2021/08/20 05:24:26;;;;;;;5.00;2.60;;;21.60;58.90;;;;;;6297672;28;20047;-73
2021/08/20 05:27:27;;;;;;;6.70;2.42;;;21.70;58.80;;;;;;6330240;27;20123;-73
2021/08/20 05:30:28;;;;;;;7.10;3.58;;;21.70;58.60;;;;;;6347447;27;20127;-73
2021/08/20 05:33:29;;;;;;;5.97;2.63;;;21.70;58.60;;;;;;6317872;28;20044;-73
2021/08/20 05:36:31;;;;;;;4.53;2.50;;;21.70;58.50;;;;;;6324214;28;20032;-73
2021/08/20 05:39:31;;;;;;;4.30;2.45;;;21.70;58.50;;;;;;6323635;28;20035;-73
2021/08/20 05:42:32;;;;;;;5.18;2.45;;;21.70;58.40;;;;;;6323734;28;20429;-73
2021/08/20 05:45:37;;;;;;;5.28;2.88;;;21.80;58.40;;;;;;6324676;28;20031;-73
2021/08/20 05:48:39;;;;;;;4.75;2.38;;;21.80;58.40;;;;;;6325026;28;20032;-73
2021/08/20 05:51:40;;;;;;;5.32;2.92;;;21.80;58.30;;;;;;6323009;28;20067;-73
2021/08/20 05:54:42;;;;;;;5.88;2.60;;;21.90;58.20;;;;;;6323145;28;20043;-73
2021/08/20 05:57:43;;;;;;;4.55;3.10;;;22.00;58.10;;;;;;6323203;28;20036;-73
2021/08/20 06:00:44;;;;;;;5.80;2.45;;;22.10;58.00;;;;;;6315689;28;20062;-73
2021/08/20 06:03:45;;;;;;;5.32;2.60;;;22.10;57.90;;;;;;6322068;27;20070;-73
2021/08/20 06:07:07;;;;;;;4.55;3.10;;;22.20;57.80;;;;;;6323291;28;20032;-74
2021/08/20 06:10:09;;;;;;;5.30;3.33;;;22.20;57.70;;;;;;6306002;28;20043;-74
2021/08/20 06:13:12;;;;;;;4.75;2.78;;;22.30;57.60;;;;;;6305904;28;20051;-73
2021/08/20 06:16:13;;;;;;;6.25;3.03;;;22.30;57.60;;;;;;6324259;28;20056;-73
2021/08/20 06:19:14;;;;;;;5.22;2.80;;;22.40;57.50;;;;;;6322752;28;20050;-74
2021/08/20 06:22:15;;;;;;;6.82;2.90;;;22.40;57.40;;;;;;6323472;28;20089;-74
2021/08/20 06:25:17;;;;;;;5.28;2.90;;;22.50;57.40;;;;;;6322430;28;20118;-74
2021/08/20 06:28:18;;;;;;;7.13;3.47;;;22.60;57.20;;;;;;6322023;28;20453;-72
2021/08/20 06:31:19;;;;;;;3.78;2.50;;;22.60;57.00;;;;;;6322582;28;20064;-74
2021/08/20 06:34:20;;;;;;;5.10;3.22;;;22.70;56.90;;;;;;6344069;27;20036;-74
2021/08/20 06:37:21;;;;;;;8.50;3.53;;;22.70;56.80;;;;;;6348900;27;20036;-74
2021/08/20 06:40:22;;;;;;;8.90;2.80;;;22.80;56.80;;;;;;6348666;27;20035;-74
2021/08/20 06:43:23;;;;;;;5.88;2.83;;;22.80;56.60;;;;;;6345587;27;20023;-73
2021/08/20 06:46:24;;;;;;;7.15;3.40;;;22.80;56.50;;;;;;6350976;27;20059;-73
2021/08/20 06:49:25;;;;;;;7.00;2.88;;;22.90;56.40;;;;;;6347318;27;20028;-74
2021/08/20 06:52:26;;;;;;;7.05;3.30;;;23.00;56.30;;;;;;6346676;27;20031;-73
2021/08/20 06:55:31;;;;;;;6.28;3.45;;;23.00;56.10;;;;;;6347412;27;20119;-74
2021/08/20 06:58:33;;;;;;;5.15;3.08;;;23.10;56.10;;;;;;6347086;27;20038;-74
2021/08/20 07:01:34;;;;;;;11.25;3.40;;;23.20;55.90;;;;;;6330164;27;20453;-74
2021/08/20 07:04:35;;;;;;;5.97;3.47;;;23.20;55.80;;;;;;6345955;27;20031;-74
2021/08/20 07:07:38;;;;;;;9.13;3.25;;;23.30;55.60;;;;;;6346829;27;20452;-74
2021/08/20 07:10:39;;;;;;;6.82;2.97;;;23.40;55.50;;;;;;6329752;27;20036;-74
2021/08/20 07:13:40;;;;;;;6.32;3.75;;;23.50;55.40;;;;;;6329488;27;20330;-74
2021/08/20 07:16:41;;;;;;;5.43;3.08;;;23.50;55.10;;;;;;6346545;27;20039;-73
2021/08/20 07:19:42;;;;;;;6.05;2.88;;;23.60;55.00;;;;;;6346552;27;20484;-72
2021/08/20 07:22:44;;;;;;;5.47;2.75;;;23.60;55.50;;;;;;6350024;27;20115;-73
2021/08/20 07:25:46;;;;;;;8.63;3.53;;;23.70;54.80;;;;;;6346342;28;20051;-74
2021/08/20 07:28:47;;;;;;;13.60;3.50;;;23.70;54.60;;;;;;6328831;28;20139;-74
2021/08/20 07:31:48;;;;;;;10.05;3.50;;;23.90;54.40;;;;;;6344283;27;20036;-73
2021/08/20 07:34:49;;;;;;;7.22;2.92;;;23.90;54.10;;;;;;6346127;27;20027;-74
2021/08/20 07:37:50;;;;;;;13.77;3.55;;;23.90;54.00;;;;;;6346088;27;20036;-74
2021/08/20 07:40:51;;;;;;;7.85;3.17;;;24.00;54.00;;;;;;6345249;27;20093;-74
2021/08/20 07:43:52;;;;;;;4.80;3.05;;;24.00;53.90;;;;;;6346022;27;20478;-74
2021/08/20 07:46:53;;;;;;;7.45;3.00;;;24.10;53.90;;;;;;6345887;27;20031;-74
2021/08/20 07:49:54;;;;;;;7.82;3.20;;;24.10;53.50;;;;;;6345810;27;20039;-74
2021/08/20 07:52:55;;;;;;;6.22;3.15;;;24.20;53.50;;;;;;6347116;27;20035;-73
2021/08/20 07:55:58;;;;;;;12.68;3.65;;;24.20;53.40;;;;;;6345475;27;20055;-75
2021/08/20 07:59:00;;;;;;;6.70;3.22;;;24.30;53.30;;;;;;6351520;27;20052;-73
2021/08/20 08:02:01;;;;;;;8.02;2.97;;;24.40;53.10;;;;;;6345540;27;20383;-73
2021/08/20 08:05:02;;;;;;;16.77;4.00;;;24.50;52.80;;;;;;6345314;27;20036;-74
2021/08/20 08:08:03;;;;;;;9.35;3.78;;;24.70;52.60;;;;;;6327817;27;20054;-74
2021/08/20 08:11:04;;;;;;;6.88;3.13;;;24.80;52.30;;;;;;6343207;27;20043;-74
2021/08/20 08:14:07;;;;;;;8.48;3.28;;;24.90;51.60;;;;;;6344909;27;20059;-74
2021/08/20 08:17:08;;;;;;;4.90;2.50;;;25.00;51.50;;;;;;6345081;27;20042;-74
2021/08/20 08:20:12;;;;;;;4.10;2.40;;;25.00;51.30;;;;;;6344601;27;20032;-74
2021/08/20 08:23:13;;;;;;;12.48;2.60;;;25.20;51.10;;;;;;6344969;27;20468;-74
2021/08/20 08:26:14;;;;;;;6.70;3.35;;;25.30;50.80;;;;;;6344562;27;20114;-74
2021/08/20 08:29:15;;;;;;;5.05;2.10;;;25.40;50.60;;;;;;6344230;27;20054;-74
2021/08/20 08:32:16;;;;;;;6.13;2.42;;;25.50;50.30;;;;;;6326267;27;20116;-74
2021/08/20 08:35:17;;;;;;;6.43;2.58;;;25.60;50.10;;;;;;6338161;27;20031;-74
2021/08/20 08:38:18;;;;;;;5.45;2.83;;;25.70;49.80;;;;;;6327356;27;20035;-74
2021/08/20 08:41:19;;;;;;;7.43;2.80;;;25.70;49.60;;;;;;6327621;27;20065;-74
2021/08/20 08:44:21;;;;;;;5.60;2.72;;;25.70;50.30;;;;;;6343535;27;20043;-74
2021/08/20 08:47:22;;;;;;;13.40;3.58;;;25.70;49.60;;;;;;6345169;27;20047;-74
2021/08/20 08:50:23;;;;;;;5.40;2.60;;;25.60;49.60;;;;;;6343852;27;20103;-74
2021/08/20 08:53:24;;;;;;;6.20;3.25;;;25.60;49.60;;;;;;6343495;27;20456;-74
2021/08/20 08:56:25;;;;;;;5.35;2.95;;;25.50;49.50;;;;;;6334188;27;20116;-74
2021/08/20 08:59:26;;;;;;;6.97;2.92;;;25.50;49.60;;;;;;6326848;27;20031;-74
2021/08/20 09:02:31;;;;;;;5.18;2.72;;;25.70;49.70;;;;;;6342820;27;20032;-74
2021/08/20 09:05:43;;;;;;;3.50;2.60;;;25.80;49.60;;;;;;6345085;27;20441;-74
2021/08/20 09:08:44;;;;;;;5.07;3.03;;;26.00;49.40;;;;;;6345198;27;20456;-74
2021/08/20 09:11:51;;;;;;;9.45;3.03;;;26.10;48.90;;;;;;6346253;27;20043;-74
2021/08/20 09:14:57;;;;;;;5.47;2.63;;;26.20;48.70;;;;;;6344933;27;20042;-74
2021/08/20 09:18:03;;;;;;;6.18;2.90;;;26.40;48.60;;;;;;6344876;27;20059;-74
2021/08/20 09:21:05;;;;;;;7.00;3.95;;;26.50;48.30;;;;;;6346637;27;20032;-74
2021/08/20 09:24:35;;;;;;;6.00;3.55;;;26.70;48.00;;;;;;6331104;28;20058;-74
2021/08/20 09:27:36;;;;;;;12.82;5.20;;;26.80;47.50;;;;;;6344156;28;20417;-73
2021/08/20 09:30:39;;;;;;;6.15;3.95;;;26.90;47.20;;;;;;6345709;28;20094;-74
2021/08/20 09:33:43;;;;;;;8.35;3.20;;;26.90;47.20;;;;;;6343216;27;20425;-73
2021/08/20 09:36:44;;;;;;;6.35;2.83;;;27.00;47.00;;;;;;6344750;27;20108;-73
2021/08/20 09:39:46;;;;;;;8.75;4.03;;;27.20;46.90;;;;;;6343438;27;20368;-73
2021/08/20 09:42:47;;;;;;;7.32;4.18;;;27.30;46.70;;;;;;6344276;27;20125;-74
2021/08/20 09:46:18;;;;;;;5.70;3.60;;;27.30;46.20;;;;;;6344367;27;20066;-74
2021/08/20 09:49:19;;;;;;;8.23;4.78;;;27.40;46.30;;;;;;6340985;27;20103;-74
2021/08/20 09:52:30;;;;;;;8.07;5.10;;;27.50;46.20;;;;;;6342909;27;20035;-74
2021/08/20 09:55:40;;;;;;;7.85;4.10;;;27.60;45.90;;;;;;6344758;27;20036;-73
2021/08/20 09:58:41;;;;;;;8.98;3.83;;;27.60;45.40;;;;;;6351354;27;20380;-75
2021/08/20 10:01:45;;;;;;;6.78;4.35;;;27.60;45.40;;;;;;6359227;27;20036;-74
2021/08/20 10:04:46;;;;;;;9.45;4.22;;;27.60;45.30;;;;;;6344411;27;20127;-73
2021/08/20 10:07:49;;;;;;;7.72;4.78;;;27.60;45.20;;;;;;6356810;27;20341;-73
2021/08/20 10:10:52;;;;;;;10.15;4.70;;;27.60;45.30;;;;;;6354447;27;20043;-74
2021/08/20 10:13:55;;;;;;;7.75;3.75;;;27.60;45.10;;;;;;6352454;27;20056;-73
2021/08/20 10:16:56;;;;;;;6.35;3.92;;;27.60;45.00;;;;;;6351185;27;20046;-73
2021/08/20 10:19:59;;;;;;;8.45;4.60;;;27.60;45.00;;;;;;6350351;27;20055;-73
2021/08/20 10:23:01;;;;;;;13.10;4.93;;;27.50;45.70;;;;;;6347306;27;20096;-73
2021/08/20 10:26:06;;;;;;;8.85;4.13;;;27.50;45.10;;;;;;6345688;27;20430;-73
2021/08/20 10:29:09;;;;;;;9.20;4.68;;;27.60;45.00;;;;;;6323305;27;20039;-74
2021/08/20 10:32:10;;;;;;;8.40;4.32;;;27.70;44.80;;;;;;6359856;27;20028;-74
2021/08/20 10:35:11;;;;;;;6.53;4.03;;;27.90;44.70;;;;;;6331230;27;20032;-74
2021/08/20 10:38:44;;;;;;;6.28;4.03;;;28.00;44.50;;;;;;6348681;27;20395;-74
2021/08/20 10:42:02;;;;;;;9.35;4.45;;;28.00;44.30;;;;;;6252934;28;20033;-74
2021/08/20 10:45:08;;;;;;;6.72;4.47;;;28.10;44.00;;;;;;6235658;28;20075;-74
2021/08/20 10:48:18;;;;;;;8.75;4.70;;;28.20;44.00;;;;;;6252231;28;20541;-73
2021/08/20 10:51:48;;;;;;;7.35;4.07;;;28.30;43.90;;;;;;6236090;28;20063;-74
2021/08/20 10:54:49;;;;;;;6.45;3.95;;;28.70;43.90;;;;;;6235313;28;20033;-74
2021/08/20 10:57:50;;;;;;;7.47;4.22;;;29.40;42.10;;;;;;6251673;28;20044;-74
2021/08/20 11:00:55;;;;;;;7.38;4.13;;;30.10;41.30;;;;;;6251788;28;20101;-74
2021/08/20 11:03:56;;;;;;;8.70;4.60;;;30.70;40.40;;;;;;6258024;28;20033;-75
2021/08/20 11:06:58;;;;;;;11.98;4.40;;;31.10;39.50;;;;;;6267184;28;20037;-74
2021/08/20 11:09:59;;;;;;;8.20;3.50;;;31.30;39.10;;;;;;6268143;28;20041;-75
2021/08/20 11:13:01;;;;;;;9.18;3.80;;;31.70;38.80;;;;;;6251422;28;20473;-74
2021/08/20 11:16:02;;;;;;;8.35;3.78;;;32.00;38.30;;;;;;6251494;28;20112;-74
2021/08/20 11:19:03;;;;;;;5.72;3.53;;;32.20;37.50;;;;;;6341747;27;20046;-73
2021/08/20 11:22:22;;;;;;;9.23;3.80;;;32.30;37.50;;;;;;6319844;27;20463;-74
2021/08/20 11:25:24;;;;;;;6.82;3.63;;;32.40;37.20;;;;;;6355385;27;20047;-74
2021/08/20 11:28:29;;;;;;;10.20;4.00;;;32.40;37.20;;;;;;6345022;27;20051;-74
2021/08/20 11:31:30;;;;;;;5.90;3.97;;;32.60;37.20;;;;;;6347074;27;20401;-74
2021/08/20 11:34:31;;;;;;;8.18;3.42;;;32.80;36.80;;;;;;6343228;27;20062;-75
2021/08/20 11:37:32;;;;;;;14.45;3.80;;;32.90;36.50;;;;;;6345718;27;20032;-74
2021/08/20 11:40:48;;;;;;;7.28;3.58;;;33.10;36.00;;;;;;6342952;27;20187;-73
2021/08/20 11:43:56;;;;;;;10.02;3.13;;;33.10;35.50;;;;;;6344987;27;20096;-74
2021/08/20 11:46:57;;;;;;;4.30;3.10;;;33.10;35.40;;;;;;6345016;27;20028;-74
2021/08/20 11:50:07;;;;;;;4.22;2.75;;;33.10;35.40;;;;;;6343938;27;20028;-74
2021/08/20 11:53:09;;;;;;;3.58;2.60;;;33.30;35.10;;;;;;6327253;27;20032;-74
2021/08/20 11:56:12;;;;;;;3.28;2.63;;;33.50;34.60;;;;;;6345917;27;20043;-74
2021/08/20 11:59:13;;;;;;;5.63;2.75;;;33.60;34.40;;;;;;6340179;27;20035;-74
2021/08/20 12:02:18;;;;;;;4.70;2.70;;;33.80;34.10;;;;;;6343765;27;20455;-75
2021/08/20 12:05:21;;;;;;;5.22;2.70;;;34.00;33.90;;;;;;6345803;27;20027;-74
2021/08/20 12:08:22;;;;;;;4.55;2.92;;;34.30;33.30;;;;;;6327676;27;20039;-75
2021/08/20 12:11:25;;;;;;;6.03;2.50;;;34.50;32.80;;;;;;6327278;27;20470;-75
2021/08/20 12:14:28;;;;;;;5.65;2.65;;;34.60;32.30;;;;;;6346088;27;20039;-74
2021/08/20 12:17:30;;;;;;;5.63;2.50;;;34.90;32.00;;;;;;6347095;27;20051;-75
2021/08/20 12:20:40;;;;;;;4.90;2.40;;;35.30;31.40;;;;;;6328678;27;20059;-75
2021/08/20 12:23:58;;;;;;;3.17;2.08;;;35.60;30.40;;;;;;6348067;27;20127;-75
2021/08/20 12:27:19;;;;;;;5.43;2.20;;;35.90;29.10;;;;;;6347073;27;20440;-74
2021/08/20 12:30:25;;;;;;;3.55;1.90;;;36.10;28.50;;;;;;6347316;27;20028;-75
2021/08/20 12:33:26;;;;;;;2.83;1.77;;;36.40;27.60;;;;;;6328698;27;20089;-74
2021/08/20 12:36:28;;;;;;;2.60;2.10;;;36.70;27.00;;;;;;6348081;27;20525;-74
2021/08/20 12:39:44;;;;;;;4.72;2.10;;;37.00;26.60;;;;;;6346758;27;20035;-74
2021/08/20 12:42:50;;;;;;;3.13;1.95;;;37.40;26.10;;;;;;6345995;27;20032;-74
2021/08/20 12:46:04;;;;;;;3.22;2.35;;;37.90;25.90;;;;;;6347679;27;20031;-75
2021/08/20 12:49:06;;;;;;;3.17;2.20;;;38.30;25.40;;;;;;6327993;27;20032;-74
2021/08/20 12:52:07;;;;;;;3.88;2.15;;;38.50;25.00;;;;;;6345221;27;20043;-75
2021/08/20 12:55:28;;;;;;;3.95;2.53;;;38.90;24.80;;;;;;6346140;27;20035;-74
2021/08/20 12:58:31;;;;;;;3.55;2.20;;;39.20;24.70;;;;;;6343938;27;20348;-75
2021/08/20 13:01:34;;;;;;;4.68;2.40;;;39.40;24.50;;;;;;6345197;27;20059;-74
2021/08/20 13:04:35;;;;;;;2.95;2.30;;;39.70;24.50;;;;;;6344289;27;20355;-74
2021/08/20 13:07:36;;;;;;;2.75;1.90;;;40.00;24.00;;;;;;6345153;27;20028;-74
2021/08/20 13:10:37;;;;;;;2.75;2.30;;;40.70;23.50;;;;;;6344940;27;20035;-75
2021/08/20 13:13:38;;;;;;;6.30;2.45;;;41.30;22.90;;;;;;6328125;27;20122;-75
2021/08/20 13:16:39;;;;;;;4.05;2.53;;;41.70;22.30;;;;;;6346093;27;20028;-75
2021/08/20 13:19:40;;;;;;;3.88;2.35;;;42.00;22.30;;;;;;6327935;27;20039;-74
2021/08/20 13:22:44;;;;;;;5.68;2.35;;;42.40;21.80;;;;;;6347001;28;20493;-73
2021/08/20 13:25:46;;;;;;;3.53;2.20;;;42.50;21.30;;;;;;6345820;28;20031;-74
2021/08/20 13:28:46;;;;;;;3.78;1.77;;;42.50;21.20;;;;;;6344555;28;20119;-74
2021/08/20 13:31:48;;;;;;;3.38;2.00;;;42.80;20.90;;;;;;6348714;28;20124;-74
2021/08/20 13:34:48;;;;;;;4.03;2.30;;;43.00;20.70;;;;;;6326575;27;20032;-74
2021/08/20 13:37:50;;;;;;;4.22;2.60;;;43.40;21.20;;;;;;6325294;27;20031;-74
2021/08/20 13:40:51;;;;;;;6.55;2.15;;;43.90;20.50;;;;;;6324035;27;20062;-74
2021/08/20 13:43:53;;;;;;;4.63;2.28;;;44.30;19.90;;;;;;6324030;27;20024;-74
2021/08/20 13:46:55;;;;;;;3.88;2.42;;;44.60;19.60;;;;;;6323760;27;20036;-74
2021/08/20 13:49:57;;;;;;;3.13;2.53;;;44.80;19.50;;;;;;6325182;27;20040;-74
2021/08/20 13:52:58;;;;;;;3.13;1.90;;;44.80;19.40;;;;;;6324133;27;20036;-74
2021/08/20 13:55:59;;;;;;;4.35;2.08;;;44.90;19.40;;;;;;6324667;27;20115;-74
2021/08/20 13:59:02;;;;;;;4.65;2.10;;;44.80;19.20;;;;;;6325023;27;20883;-74
2021/08/20 14:02:03;;;;;;;3.80;1.90;;;44.60;19.70;;;;;;6325467;27;20025;-74
2021/08/20 14:05:05;;;;;;;2.88;1.98;;;44.50;19.30;;;;;;6350519;27;20115;-74
2021/08/20 14:08:07;;;;;;;2.22;1.90;;;44.80;19.20;;;;;;6350340;27;20389;-75
2021/08/20 14:11:08;;;;;;;3.13;1.83;;;45.20;19.00;;;;;;6349065;27;20045;-74
2021/08/20 14:14:10;;;;;;;2.58;1.90;;;45.60;18.60;;;;;;6350233;27;20031;-74
2021/08/20 14:17:11;;;;;;;3.00;2.00;;;45.70;18.30;;;;;;6349684;27;20024;-74
2021/08/20 14:20:13;;;;;;;3.90;2.13;;;45.50;18.20;;;;;;6348737;27;20440;-74
2021/08/20 14:23:16;;;;;;;3.20;1.90;;;45.20;18.40;;;;;;6348626;27;20084;-74
2021/08/20 14:26:17;;;;;;;2.50;1.70;;;44.80;18.70;;;;;;6348804;27;20115;-74
2021/08/20 14:29:18;;;;;;;3.10;1.98;;;43.60;19.40;;;;;;6332234;27;20377;-73
2021/08/20 14:32:19;;;;;;;4.28;1.88;;;42.40;20.30;;;;;;6349131;27;20093;-75
2021/08/20 14:35:20;;;;;;;2.55;1.83;;;41.20;21.30;;;;;;6354913;27;20032;-73
2021/08/20 14:38:21;;;;;;;2.63;1.70;;;40.00;22.30;;;;;;6350951;27;20039;-74
2021/08/20 14:41:23;;;;;;;2.85;2.10;;;39.00;23.30;;;;;;6348909;27;20372;-74
2021/08/20 14:44:24;;;;;;;1.90;1.55;;;38.00;24.30;;;;;;6349226;27;20030;-73
2021/08/20 14:47:25;;;;;;;3.50;2.10;;;37.10;25.30;;;;;;6348132;27;20031;-74
2021/08/20 14:50:26;;;;;;;3.35;2.20;;;36.20;26.10;;;;;;6348386;27;20050;-74
2021/08/20 14:53:27;;;;;;;4.30;2.10;;;35.50;26.80;;;;;;6348140;27;20177;-74
2021/08/20 14:56:28;;;;;;;9.98;2.47;;;35.10;27.60;;;;;;6349325;27;20054;-74
2021/08/20 14:59:31;;;;;;;2.65;1.70;;;34.60;28.30;;;;;;6348110;27;20032;-74
2021/08/20 15:02:32;;;;;;;5.95;2.10;;;34.30;28.90;;;;;;6346638;27;20054;-73
2021/08/20 15:05:34;;;;;;;7.22;2.28;;;34.00;29.40;;;;;;6330652;27;20043;-73
2021/08/20 15:08:35;;;;;;;3.78;1.90;;;33.70;29.80;;;;;;6346811;27;20114;-74
2021/08/20 15:11:36;;;;;;;3.33;2.15;;;33.50;30.10;;;;;;6348783;27;20040;-74
2021/08/20 15:14:37;;;;;;;7.55;2.28;;;33.30;30.70;;;;;;6346621;27;20045;-74
2021/08/20 15:17:41;;;;;;;2.78;1.75;;;33.20;31.10;;;;;;6348752;27;20040;-74
2021/08/20 15:20:42;;;;;;;4.68;1.88;;;33.00;31.20;;;;;;6347145;27;20452;-74
2021/08/20 15:23:44;;;;;;;2.90;2.15;;;33.00;31.70;;;;;;6348678;27;20054;-74
2021/08/20 15:26:45;;;;;;;5.85;2.30;;;32.80;32.00;;;;;;6346118;27;20047;-74
2021/08/20 15:29:46;;;;;;;3.25;2.25;;;32.70;32.00;;;;;;6347367;27;20376;-74
2021/08/20 15:32:47;;;;;;;2.25;1.85;;;32.60;32.30;;;;;;6348258;27;20131;-74
2021/08/20 15:35:50;;;;;;;2.85;1.73;;;32.70;32.50;;;;;;6348260;27;20352;-74
2021/08/20 15:38:51;;;;;;;10.68;1.80;;;32.70;32.70;;;;;;6346738;27;20049;-74
2021/08/20 15:41:52;;;;;;;4.75;2.17;;;32.80;32.70;;;;;;6346534;27;20036;-74
2021/08/20 15:44:55;;;;;;;2.42;1.92;;;32.90;32.80;;;;;;6347890;27;20040;-74
2021/08/20 15:47:57;;;;;;;3.08;2.15;;;33.10;32.70;;;;;;6330066;27;20072;-74
2021/08/20 15:50:58;;;;;;;5.45;2.33;;;33.30;32.50;;;;;;6345203;27;20112;-74
2021/08/20 15:54:00;;;;;;;3.75;2.08;;;33.60;32.30;;;;;;6346755;27;20406;-74